sensor_id;sensor_type;location;lat;lon;timestamp;pressure;altitude;pressure_sealevel;temperature;humidity
57248;BME280;55809;46.618;10.764;2022-07-23T00:00:39;93152.31;;;24.54;49.02
57248;BME280;55809;46.618;10.764;2022-07-23T00:03:06;93151.50;;;24.48;48.60
57248;BME280;55809;46.618;10.764;2022-07-23T00:05:33;93156.00;;;24.46;49.13
57248;BME280;55809;46.618;10.764;2022-07-23T00:08:00;93140.50;;;24.33;48.98
57248;BME280;55809;46.618;10.764;2022-07-23T00:10:27;93156.53;;;24.50;49.64
57248;BME280;55809;46.618;10.764;2022-07-23T00:12:54;93155.50;;;24.47;49.54
57248;BME280;55809;46.618;10.764;2022-07-23T00:15:22;93162.28;;;24.31;49.89
57248;BME280;55809;46.618;10.764;2022-07-23T00:17:49;93170.28;;;24.29;50.15
57248;BME280;55809;46.618;10.764;2022-07-23T00:20:17;93170.63;;;24.37;49.30
57248;BME280;55809;46.618;10.764;2022-07-23T00:22:47;93165.81;;;24.32;49.66
57248;BME280;55809;46.618;10.764;2022-07-23T00:25:14;93160.78;;;24.30;49.39
57248;BME280;55809;46.618;10.764;2022-07-23T00:27:41;93173.13;;;24.35;49.53
57248;BME280;55809;46.618;10.764;2022-07-23T00:30:09;93164.84;;;24.35;49.30
57248;BME280;55809;46.618;10.764;2022-07-23T00:32:46;93164.22;;;24.25;49.56
57248;BME280;55809;46.618;10.764;2022-07-23T00:35:14;93165.53;;;24.30;49.45
57248;BME280;55809;46.618;10.764;2022-07-23T00:37:41;93155.75;;;24.29;49.89
57248;BME280;55809;46.618;10.764;2022-07-23T00:40:10;93158.97;;;24.27;50.24
57248;BME280;55809;46.618;10.764;2022-07-23T00:42:37;93161.19;;;24.23;50.31
57248;BME280;55809;46.618;10.764;2022-07-23T00:45:05;93167.38;;;24.18;50.99
57248;BME280;55809;46.618;10.764;2022-07-23T00:47:32;93166.81;;;24.14;51.41
57248;BME280;55809;46.618;10.764;2022-07-23T00:50:01;93165.56;;;24.15;51.15
57248;BME280;55809;46.618;10.764;2022-07-23T00:52:27;93163.69;;;24.06;51.51
57248;BME280;55809;46.618;10.764;2022-07-23T00:54:55;93158.66;;;24.05;51.18
57248;BME280;55809;46.618;10.764;2022-07-23T00:57:22;93153.44;;;24.07;51.32
57248;BME280;55809;46.618;10.764;2022-07-23T00:59:49;93162.09;;;24.00;51.97
57248;BME280;55809;46.618;10.764;2022-07-23T01:02:16;93156.28;;;23.98;52.06
57248;BME280;55809;46.618;10.764;2022-07-23T01:04:43;93153.63;;;24.03;51.84
57248;BME280;55809;46.618;10.764;2022-07-23T01:07:12;93153.13;;;24.05;51.34
57248;BME280;55809;46.618;10.764;2022-07-23T01:09:40;93144.09;;;24.04;51.67
57248;BME280;55809;46.618;10.764;2022-07-23T01:12:07;93149.06;;;24.00;51.69
57248;BME280;55809;46.618;10.764;2022-07-23T01:14:34;93128.84;;;23.88;51.99
57248;BME280;55809;46.618;10.764;2022-07-23T01:17:02;93139.19;;;23.94;52.15
57248;BME280;55809;46.618;10.764;2022-07-23T01:19:28;93136.91;;;23.92;51.82
57248;BME280;55809;46.618;10.764;2022-07-23T01:21:57;93143.75;;;23.97;51.94
57248;BME280;55809;46.618;10.764;2022-07-23T01:24:27;93143.22;;;23.93;52.10
57248;BME280;55809;46.618;10.764;2022-07-23T01:26:54;93148.91;;;23.89;51.97
57248;BME280;55809;46.618;10.764;2022-07-23T01:29:21;93158.91;;;23.86;52.34
57248;BME280;55809;46.618;10.764;2022-07-23T01:31:48;93162.31;;;23.81;52.72
57248;BME280;55809;46.618;10.764;2022-07-23T01:34:15;93163.28;;;23.78;52.38
57248;BME280;55809;46.618;10.764;2022-07-23T01:36:42;93117.22;;;23.34;52.93
57248;BME280;55809;46.618;10.764;2022-07-23T01:39:09;93176.66;;;23.56;53.35
57248;BME280;55809;46.618;10.764;2022-07-23T01:41:38;93175.16;;;23.55;53.73
57248;BME280;55809;46.618;10.764;2022-07-23T01:44:06;93172.88;;;23.53;53.60
57248;BME280;55809;46.618;10.764;2022-07-23T01:46:33;93166.63;;;23.53;53.21
57248;BME280;55809;46.618;10.764;2022-07-23T01:49:00;93167.38;;;23.53;53.31
57248;BME280;55809;46.618;10.764;2022-07-23T01:51:27;93170.31;;;23.50;52.84
57248;BME280;55809;46.618;10.764;2022-07-23T01:53:54;93150.06;;;23.38;53.36
57248;BME280;55809;46.618;10.764;2022-07-23T01:56:21;93165.94;;;23.43;54.23
57248;BME280;55809;46.618;10.764;2022-07-23T01:58:49;93156.75;;;23.46;53.41
57248;BME280;55809;46.618;10.764;2022-07-23T02:01:16;93111.63;;;23.14;53.57
57248;BME280;55809;46.618;10.764;2022-07-23T02:03:43;93157.75;;;23.49;53.56
57248;BME280;55809;46.618;10.764;2022-07-23T02:06:10;93160.50;;;23.49;53.54
57248;BME280;55809;46.618;10.764;2022-07-23T02:08:37;93169.47;;;23.44;54.15
57248;BME280;55809;46.618;10.764;2022-07-23T02:11:04;93168.72;;;23.43;53.97
57248;BME280;55809;46.618;10.764;2022-07-23T02:13:31;93187.88;;;23.37;54.44
57248;BME280;55809;46.618;10.764;2022-07-23T02:16:00;93194.34;;;23.34;54.40
57248;BME280;55809;46.618;10.764;2022-07-23T02:18:26;93197.41;;;23.36;54.29
57248;BME280;55809;46.618;10.764;2022-07-23T02:20:53;93208.00;;;23.29;54.52
57248;BME280;55809;46.618;10.764;2022-07-23T02:23:20;93203.06;;;23.33;54.35
57248;BME280;55809;46.618;10.764;2022-07-23T02:25:47;93197.41;;;23.36;54.01
57248;BME280;55809;46.618;10.764;2022-07-23T02:28:14;93199.09;;;23.34;54.43
57248;BME280;55809;46.618;10.764;2022-07-23T02:30:41;93197.00;;;23.29;54.57
57248;BME280;55809;46.618;10.764;2022-07-23T02:33:10;93195.19;;;23.26;55.09
57248;BME280;55809;46.618;10.764;2022-07-23T02:35:37;93193.38;;;23.23;54.90
57248;BME280;55809;46.618;10.764;2022-07-23T02:38:04;93189.84;;;23.22;54.77
57248;BME280;55809;46.618;10.764;2022-07-23T02:40:31;93192.03;;;23.18;54.95
57248;BME280;55809;46.618;10.764;2022-07-23T02:42:57;93196.50;;;23.15;55.10
57248;BME280;55809;46.618;10.764;2022-07-23T02:45:24;93198.50;;;23.15;54.71
57248;BME280;55809;46.618;10.764;2022-07-23T02:47:51;93203.88;;;23.09;55.31
57248;BME280;55809;46.618;10.764;2022-07-23T02:50:20;93211.69;;;23.11;55.01
57248;BME280;55809;46.618;10.764;2022-07-23T02:52:47;93211.22;;;23.12;55.22
57248;BME280;55809;46.618;10.764;2022-07-23T02:55:14;93216.44;;;23.10;55.90
57248;BME280;55809;46.618;10.764;2022-07-23T02:57:41;93233.31;;;23.03;58.81
57248;BME280;55809;46.618;10.764;2022-07-23T03:00:10;93254.19;;;22.95;59.25
57248;BME280;55809;46.618;10.764;2022-07-23T03:02:37;93285.91;;;22.81;60.31
57248;BME280;55809;46.618;10.764;2022-07-23T03:05:05;93302.94;;;22.70;59.62
57248;BME280;55809;46.618;10.764;2022-07-23T03:07:34;93303.47;;;22.17;58.23
57248;BME280;55809;46.618;10.764;2022-07-23T03:10:01;93408.47;;;20.30;67.37
57248;BME280;55809;46.618;10.764;2022-07-23T03:12:28;93516.94;;;19.36;73.11
57248;BME280;55809;46.618;10.764;2022-07-23T03:14:55;93570.22;;;18.81;76.38
57248;BME280;55809;46.618;10.764;2022-07-23T03:17:22;93593.97;;;18.84;77.59
57248;BME280;55809;46.618;10.764;2022-07-23T03:19:49;93598.38;;;18.94;78.97
57248;BME280;55809;46.618;10.764;2022-07-23T03:22:16;93607.72;;;19.09;77.54
57248;BME280;55809;46.618;10.764;2022-07-23T03:24:45;93623.81;;;19.33;73.61
57248;BME280;55809;46.618;10.764;2022-07-23T03:27:21;93629.28;;;19.20;76.64
57248;BME280;55809;46.618;10.764;2022-07-23T03:29:50;93639.44;;;19.07;77.45
57248;BME280;55809;46.618;10.764;2022-07-23T03:32:17;93654.22;;;19.09;77.40
57248;BME280;55809;46.618;10.764;2022-07-23T03:34:44;93663.41;;;19.03;77.15
57248;BME280;55809;46.618;10.764;2022-07-23T03:37:11;93682.75;;;18.95;78.27
57248;BME280;55809;46.618;10.764;2022-07-23T03:39:38;93708.34;;;18.89;79.72
57248;BME280;55809;46.618;10.764;2022-07-23T03:42:07;93725.63;;;18.86;78.68
57248;BME280;55809;46.618;10.764;2022-07-23T03:44:34;93725.53;;;18.89;79.50
57248;BME280;55809;46.618;10.764;2022-07-23T03:47:02;93738.44;;;18.89;80.03
57248;BME280;55809;46.618;10.764;2022-07-23T03:49:29;93754.13;;;19.01;78.30
57248;BME280;55809;46.618;10.764;2022-07-23T03:51:57;93756.56;;;18.83;78.82
57248;BME280;55809;46.618;10.764;2022-07-23T03:54:24;93761.44;;;18.75;80.21
57248;BME280;55809;46.618;10.764;2022-07-23T03:56:51;93765.28;;;18.78;79.56
57248;BME280;55809;46.618;10.764;2022-07-23T03:59:19;93765.72;;;18.76;80.02
57248;BME280;55809;46.618;10.764;2022-07-23T04:01:46;93731.25;;;18.62;80.36
57248;BME280;55809;46.618;10.764;2022-07-23T04:04:13;93749.63;;;18.78;80.32
57248;BME280;55809;46.618;10.764;2022-07-23T04:06:40;93751.16;;;18.95;79.18
57248;BME280;55809;46.618;10.764;2022-07-23T04:09:07;93738.28;;;19.09;80.21
57248;BME280;55809;46.618;10.764;2022-07-23T04:11:34;93724.09;;;19.27;79.90
57248;BME280;55809;46.618;10.764;2022-07-23T04:14:01;93716.16;;;19.45;79.15
57248;BME280;55809;46.618;10.764;2022-07-23T04:16:29;93710.00;;;19.54;77.09
57248;BME280;55809;46.618;10.764;2022-07-23T04:18:57;93677.03;;;19.57;77.99
57248;BME280;55809;46.618;10.764;2022-07-23T04:21:24;93655.63;;;19.68;78.04
57248;BME280;55809;46.618;10.764;2022-07-23T04:23:51;93636.31;;;19.59;77.65
57248;BME280;55809;46.618;10.764;2022-07-23T04:26:18;93579.47;;;19.38;78.26
57248;BME280;55809;46.618;10.764;2022-07-23T04:28:46;93475.38;;;18.90;77.90
57248;BME280;55809;46.618;10.764;2022-07-23T04:31:13;93473.38;;;18.65;80.39
57248;BME280;55809;46.618;10.764;2022-07-23T04:33:42;93463.50;;;18.42;80.92
57248;BME280;55809;46.618;10.764;2022-07-23T04:36:09;93455.97;;;18.34;79.37
57248;BME280;55809;46.618;10.764;2022-07-23T04:38:36;93429.53;;;18.56;77.38
57248;BME280;55809;46.618;10.764;2022-07-23T04:41:04;93444.75;;;18.95;76.65
57248;BME280;55809;46.618;10.764;2022-07-23T04:43:31;93474.91;;;19.17;77.00
57248;BME280;55809;46.618;10.764;2022-07-23T04:45:58;93498.66;;;19.46;76.10
57248;BME280;55809;46.618;10.764;2022-07-23T04:48:25;93498.06;;;19.51;76.95
57248;BME280;55809;46.618;10.764;2022-07-23T04:50:53;93524.16;;;19.43;78.77
57248;BME280;55809;46.618;10.764;2022-07-23T04:53:20;93499.78;;;18.97;80.33
57248;BME280;55809;46.618;10.764;2022-07-23T04:55:47;93480.38;;;18.54;81.97
57248;BME280;55809;46.618;10.764;2022-07-23T04:58:14;93511.06;;;18.45;83.17
57248;BME280;55809;46.618;10.764;2022-07-23T05:00:41;93508.22;;;18.36;83.23
57248;BME280;55809;46.618;10.764;2022-07-23T05:03:10;93504.50;;;18.30;83.16
57248;BME280;55809;46.618;10.764;2022-07-23T05:05:37;93495.97;;;18.27;82.53
57248;BME280;55809;46.618;10.764;2022-07-23T05:08:06;93501.13;;;18.51;81.79
57248;BME280;55809;46.618;10.764;2022-07-23T05:10:33;93487.41;;;18.80;81.09
57248;BME280;55809;46.618;10.764;2022-07-23T05:13:01;93485.13;;;19.04;79.49
57248;BME280;55809;46.618;10.764;2022-07-23T05:15:27;93488.94;;;19.19;78.74
57248;BME280;55809;46.618;10.764;2022-07-23T05:17:55;93485.63;;;19.37;76.29
57248;BME280;55809;46.618;10.764;2022-07-23T05:20:22;93487.06;;;19.42;76.67
57248;BME280;55809;46.618;10.764;2022-07-23T05:22:49;93488.47;;;19.34;78.14
57248;BME280;55809;46.618;10.764;2022-07-23T05:25:18;93485.75;;;19.34;78.63
57248;BME280;55809;46.618;10.764;2022-07-23T05:27:45;93483.44;;;19.32;78.51
57248;BME280;55809;46.618;10.764;2022-07-23T05:30:12;93478.75;;;19.33;78.54
57248;BME280;55809;46.618;10.764;2022-07-23T05:32:39;93468.56;;;19.33;78.74
57248;BME280;55809;46.618;10.764;2022-07-23T05:35:07;93464.81;;;19.40;78.36
57248;BME280;55809;46.618;10.764;2022-07-23T05:37:35;93455.06;;;19.52;77.88
57248;BME280;55809;46.618;10.764;2022-07-23T05:40:02;93465.88;;;19.68;77.29
57248;BME280;55809;46.618;10.764;2022-07-23T05:42:33;93467.16;;;19.76;76.82
57248;BME280;55809;46.618;10.764;2022-07-23T05:45:00;93462.25;;;19.71;76.04
57248;BME280;55809;46.618;10.764;2022-07-23T05:47:28;93469.13;;;19.63;75.69
57248;BME280;55809;46.618;10.764;2022-07-23T05:49:55;93472.47;;;19.58;76.33
57248;BME280;55809;46.618;10.764;2022-07-23T05:52:22;93472.47;;;19.58;76.92
57248;BME280;55809;46.618;10.764;2022-07-23T05:54:49;93469.59;;;19.61;76.42
57248;BME280;55809;46.618;10.764;2022-07-23T05:57:16;93473.75;;;19.66;77.01
57248;BME280;55809;46.618;10.764;2022-07-23T05:59:44;93463.91;;;19.68;76.83
57248;BME280;55809;46.618;10.764;2022-07-23T06:02:11;93471.63;;;19.83;74.96
57248;BME280;55809;46.618;10.764;2022-07-23T06:04:38;93478.44;;;19.78;75.50
57248;BME280;55809;46.618;10.764;2022-07-23T06:07:05;93475.63;;;19.69;76.66
57248;BME280;55809;46.618;10.764;2022-07-23T06:09:32;93472.13;;;19.68;76.73
57248;BME280;55809;46.618;10.764;2022-07-23T06:12:00;93474.34;;;19.83;76.20
57248;BME280;55809;46.618;10.764;2022-07-23T06:14:27;93474.69;;;19.85;76.50
57248;BME280;55809;46.618;10.764;2022-07-23T06:16:55;93476.59;;;19.97;76.46
57248;BME280;55809;46.618;10.764;2022-07-23T06:19:22;93474.94;;;20.00;76.24
57248;BME280;55809;46.618;10.764;2022-07-23T06:21:49;93480.16;;;20.07;75.93
57248;BME280;55809;46.618;10.764;2022-07-23T06:24:16;93477.97;;;20.14;75.77
57248;BME280;55809;46.618;10.764;2022-07-23T06:26:43;93480.03;;;20.32;75.02
57248;BME280;55809;46.618;10.764;2022-07-23T06:29:10;93467.47;;;20.66;73.48
57248;BME280;55809;46.618;10.764;2022-07-23T06:31:37;93471.84;;;21.35;71.76
57248;BME280;55809;46.618;10.764;2022-07-23T06:34:06;93473.16;;;21.89;70.08
57248;BME280;55809;46.618;10.764;2022-07-23T06:36:33;93468.28;;;21.93;68.52
57248;BME280;55809;46.618;10.764;2022-07-23T06:39:00;93468.88;;;21.79;69.15
57248;BME280;55809;46.618;10.764;2022-07-23T06:41:27;93479.53;;;21.68;69.62
57248;BME280;55809;46.618;10.764;2022-07-23T06:43:54;93475.13;;;21.61;69.73
57248;BME280;55809;46.618;10.764;2022-07-23T06:46:21;93474.34;;;21.51;69.64
57248;BME280;55809;46.618;10.764;2022-07-23T06:48:48;93479.53;;;21.49;70.40
57248;BME280;55809;46.618;10.764;2022-07-23T06:51:16;93493.56;;;21.42;69.13
57248;BME280;55809;46.618;10.764;2022-07-23T06:53:43;93486.41;;;21.63;69.59
57248;BME280;55809;46.618;10.764;2022-07-23T06:56:10;93484.91;;;21.71;70.30
57248;BME280;55809;46.618;10.764;2022-07-23T06:58:37;93490.84;;;21.70;70.59
57248;BME280;55809;46.618;10.764;2022-07-23T07:01:04;93489.66;;;21.80;70.41
57248;BME280;55809;46.618;10.764;2022-07-23T07:03:31;93487.84;;;21.95;69.19
57248;BME280;55809;46.618;10.764;2022-07-23T07:05:58;93485.38;;;21.79;68.90
57248;BME280;55809;46.618;10.764;2022-07-23T07:08:27;93489.19;;;21.72;66.47
57248;BME280;55809;46.618;10.764;2022-07-23T07:10:55;93462.06;;;21.34;67.95
57248;BME280;55809;46.618;10.764;2022-07-23T07:13:22;93479.69;;;21.46;68.22
57248;BME280;55809;46.618;10.764;2022-07-23T07:15:49;93474.66;;;21.53;68.79
57248;BME280;55809;46.618;10.764;2022-07-23T07:18:16;93477.88;;;21.52;70.05
57248;BME280;55809;46.618;10.764;2022-07-23T07:20:43;93481.81;;;21.51;69.72
57248;BME280;55809;46.618;10.764;2022-07-23T07:23:10;93477.03;;;21.33;71.77
57248;BME280;55809;46.618;10.764;2022-07-23T07:25:41;93491.72;;;21.39;72.55
57248;BME280;55809;46.618;10.764;2022-07-23T07:28:08;93506.34;;;21.36;73.14
57248;BME280;55809;46.618;10.764;2022-07-23T07:30:35;93524.81;;;21.36;74.12
57248;BME280;55809;46.618;10.764;2022-07-23T07:33:02;93544.41;;;21.25;74.42
57248;BME280;55809;46.618;10.764;2022-07-23T07:35:29;93560.41;;;21.17;74.40
57248;BME280;55809;46.618;10.764;2022-07-23T07:37:58;93561.88;;;21.09;74.41
57248;BME280;55809;46.618;10.764;2022-07-23T07:40:25;93571.88;;;20.94;75.50
57248;BME280;55809;46.618;10.764;2022-07-23T07:42:54;93577.13;;;20.79;75.60
57248;BME280;55809;46.618;10.764;2022-07-23T07:45:23;93577.00;;;20.60;76.18
57248;BME280;55809;46.618;10.764;2022-07-23T07:47:51;93568.47;;;20.58;76.14
57248;BME280;55809;46.618;10.764;2022-07-23T07:50:21;93581.44;;;20.45;75.65
57248;BME280;55809;46.618;10.764;2022-07-23T07:52:48;93579.56;;;20.42;75.79
57248;BME280;55809;46.618;10.764;2022-07-23T07:55:15;93577.16;;;20.44;76.19
57248;BME280;55809;46.618;10.764;2022-07-23T07:57:42;93573.78;;;20.40;77.03
57248;BME280;55809;46.618;10.764;2022-07-23T08:00:12;93576.22;;;20.38;77.85
57248;BME280;55809;46.618;10.764;2022-07-23T08:02:43;93544.78;;;19.95;78.95
57248;BME280;55809;46.618;10.764;2022-07-23T08:05:12;93564.22;;;19.88;81.19
57248;BME280;55809;46.618;10.764;2022-07-23T08:07:39;93571.91;;;19.67;82.23
57248;BME280;55809;46.618;10.764;2022-07-23T08:10:08;93567.34;;;19.64;82.33
57248;BME280;55809;46.618;10.764;2022-07-23T08:12:43;93559.41;;;19.66;82.28
57248;BME280;55809;46.618;10.764;2022-07-23T08:15:13;93493.31;;;19.30;80.61
57248;BME280;55809;46.618;10.764;2022-07-23T08:17:43;93535.13;;;19.43;83.65
57248;BME280;55809;46.618;10.764;2022-07-23T08:20:12;93539.94;;;19.26;82.84
57248;BME280;55809;46.618;10.764;2022-07-23T08:22:44;93533.59;;;19.29;83.18
57248;BME280;55809;46.618;10.764;2022-07-23T08:25:12;93507.09;;;19.39;83.66
57248;BME280;55809;46.618;10.764;2022-07-23T08:27:39;93524.47;;;19.71;81.16
57248;BME280;55809;46.618;10.764;2022-07-23T08:30:07;93529.16;;;20.18;78.59
57248;BME280;55809;46.618;10.764;2022-07-23T08:32:50;93524.03;;;20.73;75.00
57248;BME280;55809;46.618;10.764;2022-07-23T08:35:17;93522.91;;;21.64;70.96
57248;BME280;55809;46.618;10.764;2022-07-23T08:37:44;93533.50;;;22.57;68.39
57248;BME280;55809;46.618;10.764;2022-07-23T08:40:11;93504.41;;;23.26;64.26
57248;BME280;55809;46.618;10.764;2022-07-23T08:42:39;93520.09;;;23.77;62.87
57248;BME280;55809;46.618;10.764;2022-07-23T08:45:08;93497.09;;;23.56;63.95
57248;BME280;55809;46.618;10.764;2022-07-23T08:47:37;93499.91;;;23.95;64.81
57248;BME280;55809;46.618;10.764;2022-07-23T08:50:07;93497.56;;;23.79;67.19
57248;BME280;55809;46.618;10.764;2022-07-23T08:52:35;93500.41;;;23.70;68.30
57248;BME280;55809;46.618;10.764;2022-07-23T08:55:03;93490.22;;;23.52;66.07
57248;BME280;55809;46.618;10.764;2022-07-23T08:57:30;93475.53;;;23.22;69.47
57248;BME280;55809;46.618;10.764;2022-07-23T08:59:57;93465.06;;;22.92;70.35
57248;BME280;55809;46.618;10.764;2022-07-23T09:02:24;93462.84;;;22.73;68.83
57248;BME280;55809;46.618;10.764;2022-07-23T09:04:51;93454.31;;;22.70;68.93
57248;BME280;55809;46.618;10.764;2022-07-23T09:07:20;93418.06;;;22.63;68.33
57248;BME280;55809;46.618;10.764;2022-07-23T09:10:04;93440.00;;;22.90;68.34
57248;BME280;55809;46.618;10.764;2022-07-23T09:12:31;93453.16;;;22.86;68.42
57248;BME280;55809;46.618;10.764;2022-07-23T09:15:04;93444.00;;;22.80;68.00
57248;BME280;55809;46.618;10.764;2022-07-23T09:17:37;93443.50;;;22.91;67.94
57248;BME280;55809;46.618;10.764;2022-07-23T09:20:09;93451.63;;;22.94;68.41
57248;BME280;55809;46.618;10.764;2022-07-23T09:22:38;93442.03;;;23.23;66.94
57248;BME280;55809;46.618;10.764;2022-07-23T09:25:09;93435.81;;;23.61;65.53
57248;BME280;55809;46.618;10.764;2022-07-23T09:27:50;93441.78;;;23.69;64.98
57248;BME280;55809;46.618;10.764;2022-07-23T09:30:19;93437.72;;;23.79;65.94
57248;BME280;55809;46.618;10.764;2022-07-23T09:33:04;93437.53;;;23.83;64.65
57248;BME280;55809;46.618;10.764;2022-07-23T09:35:47;93436.94;;;23.79;65.44
57248;BME280;55809;46.618;10.764;2022-07-23T09:38:17;93420.06;;;24.01;65.76
57248;BME280;55809;46.618;10.764;2022-07-23T09:40:46;93411.22;;;24.11;63.79
57248;BME280;55809;46.618;10.764;2022-07-23T09:43:25;93413.72;;;24.24;65.69
57248;BME280;55809;46.618;10.764;2022-07-23T09:45:53;93422.94;;;24.06;63.98
57248;BME280;55809;46.618;10.764;2022-07-23T09:48:22;93423.19;;;24.08;65.15
57248;BME280;55809;46.618;10.764;2022-07-23T09:50:51;93415.25;;;24.25;65.55
57248;BME280;55809;46.618;10.764;2022-07-23T09:53:25;93402.06;;;25.24;61.68
57248;BME280;55809;46.618;10.764;2022-07-23T09:55:57;93411.69;;;25.90;59.70
57248;BME280;55809;46.618;10.764;2022-07-23T09:58:25;93395.53;;;26.09;59.37
57248;BME280;55809;46.618;10.764;2022-07-23T10:00:54;93396.47;;;26.84;57.31
57248;BME280;55809;46.618;10.764;2022-07-23T10:03:23;93395.47;;;27.13;56.14
57248;BME280;55809;46.618;10.764;2022-07-23T10:05:51;93384.78;;;27.43;55.45
57248;BME280;55809;46.618;10.764;2022-07-23T10:08:20;93389.63;;;27.54;53.38
57248;BME280;55809;46.618;10.764;2022-07-23T10:10:50;93391.59;;;27.42;54.22
57248;BME280;55809;46.618;10.764;2022-07-23T10:13:17;93386.38;;;26.81;55.12
57248;BME280;55809;46.618;10.764;2022-07-23T10:16:01;93371.38;;;26.93;55.29
57248;BME280;55809;46.618;10.764;2022-07-23T10:18:30;93376.72;;;27.40;51.98
57248;BME280;55809;46.618;10.764;2022-07-23T10:20:57;93373.06;;;27.71;52.88
57248;BME280;55809;46.618;10.764;2022-07-23T10:23:31;93362.41;;;28.23;49.94
57248;BME280;55809;46.618;10.764;2022-07-23T10:26:05;93342.44;;;28.25;48.86
57248;BME280;55809;46.618;10.764;2022-07-23T10:28:49;93356.13;;;28.40;49.55
57248;BME280;55809;46.618;10.764;2022-07-23T10:31:31;93338.97;;;28.69;47.71
57248;BME280;55809;46.618;10.764;2022-07-23T10:34:11;93341.72;;;28.30;47.88
57248;BME280;55809;46.618;10.764;2022-07-23T10:36:44;93343.72;;;28.18;49.72
57248;BME280;55809;46.618;10.764;2022-07-23T10:39:17;93339.72;;;28.47;49.17
57248;BME280;55809;46.618;10.764;2022-07-23T10:41:49;93337.16;;;28.33;48.22
57248;BME280;55809;46.618;10.764;2022-07-23T10:44:19;93328.75;;;27.93;49.91
57248;BME280;55809;46.618;10.764;2022-07-23T10:46:57;93323.50;;;28.06;48.49
57248;BME280;55809;46.618;10.764;2022-07-23T10:49:39;93321.22;;;27.94;53.46
57248;BME280;55809;46.618;10.764;2022-07-23T10:52:17;93322.97;;;28.02;49.23
57248;BME280;55809;46.618;10.764;2022-07-23T10:54:46;93316.16;;;28.03;49.95
57248;BME280;55809;46.618;10.764;2022-07-23T10:57:18;93295.22;;;27.91;50.49
57248;BME280;55809;46.618;10.764;2022-07-23T11:02:56;93306.06;;;27.95;49.40
57248;BME280;55809;46.618;10.764;2022-07-23T11:05:26;93297.44;;;27.76;50.41
57248;BME280;55809;46.618;10.764;2022-07-23T11:08:23;93286.75;;;27.46;51.87
57248;BME280;55809;46.618;10.764;2022-07-23T11:10:56;93286.03;;;27.57;53.40
57248;BME280;55809;46.618;10.764;2022-07-23T11:13:44;93279.91;;;27.36;50.41
57248;BME280;55809;46.618;10.764;2022-07-23T11:16:15;93280.88;;;27.22;53.72
57248;BME280;55809;46.618;10.764;2022-07-23T11:19:04;93279.47;;;27.00;52.21
57248;BME280;55809;46.618;10.764;2022-07-23T11:21:51;93269.63;;;26.94;51.31
57248;BME280;55809;46.618;10.764;2022-07-23T11:24:21;93274.38;;;26.82;50.97
57248;BME280;55809;46.618;10.764;2022-07-23T11:26:50;93264.19;;;26.30;50.88
57248;BME280;55809;46.618;10.764;2022-07-23T11:29:45;93262.75;;;25.83;50.57
57248;BME280;55809;46.618;10.764;2022-07-23T11:32:38;93272.50;;;25.52;51.36
57248;BME280;55809;46.618;10.764;2022-07-23T11:35:25;93272.81;;;25.34;50.72
57248;BME280;55809;46.618;10.764;2022-07-23T11:38:04;93283.16;;;25.18;51.61
57248;BME280;55809;46.618;10.764;2022-07-23T11:40:32;93282.03;;;25.10;53.38
57248;BME280;55809;46.618;10.764;2022-07-23T11:43:03;93282.03;;;24.90;58.83
57248;BME280;55809;46.618;10.764;2022-07-23T11:45:38;93286.75;;;24.69;62.91
57248;BME280;55809;46.618;10.764;2022-07-23T11:48:14;93291.09;;;24.55;68.34
57248;BME280;55809;46.618;10.764;2022-07-23T11:50:43;93294.06;;;24.51;71.07
57248;BME280;55809;46.618;10.764;2022-07-23T11:53:13;93298.53;;;24.19;72.30
57248;BME280;55809;46.618;10.764;2022-07-23T11:55:42;93315.09;;;24.04;74.18
57248;BME280;55809;46.618;10.764;2022-07-23T11:58:10;93326.38;;;23.92;74.96
57248;BME280;55809;46.618;10.764;2022-07-23T12:00:41;93325.16;;;23.78;75.77
57248;BME280;55809;46.618;10.764;2022-07-23T12:03:10;93309.28;;;23.49;74.19
57248;BME280;55809;46.618;10.764;2022-07-23T12:05:38;93328.50;;;23.43;73.71
57248;BME280;55809;46.618;10.764;2022-07-23T12:08:08;93336.63;;;23.37;76.05
57248;BME280;55809;46.618;10.764;2022-07-23T12:10:40;93336.81;;;23.10;75.36
57248;BME280;55809;46.618;10.764;2022-07-23T12:13:10;93344.41;;;23.00;76.87
57248;BME280;55809;46.618;10.764;2022-07-23T12:15:42;93342.63;;;22.79;78.70
57248;BME280;55809;46.618;10.764;2022-07-23T12:18:13;93348.66;;;22.68;78.61
57248;BME280;55809;46.618;10.764;2022-07-23T12:20:44;93328.09;;;22.54;76.73
57248;BME280;55809;46.618;10.764;2022-07-23T12:23:14;93333.25;;;22.10;76.02
57248;BME280;55809;46.618;10.764;2022-07-23T12:25:44;93331.75;;;21.99;81.38
57248;BME280;55809;46.618;10.764;2022-07-23T12:28:13;93304.19;;;21.75;78.75
57248;BME280;55809;46.618;10.764;2022-07-23T12:30:47;93308.16;;;21.56;79.63
57248;BME280;55809;46.618;10.764;2022-07-23T12:33:22;93313.06;;;21.43;78.53
57248;BME280;55809;46.618;10.764;2022-07-23T12:35:51;93310.44;;;21.48;78.90
57248;BME280;55809;46.618;10.764;2022-07-23T12:38:22;93307.09;;;21.63;79.97
57248;BME280;55809;46.618;10.764;2022-07-23T12:40:53;93302.47;;;21.78;80.16
57248;BME280;55809;46.618;10.764;2022-07-23T12:45:55;93288.09;;;21.92;78.63
57248;BME280;55809;46.618;10.764;2022-07-23T12:48:27;93310.63;;;22.24;77.64
57248;BME280;55809;46.618;10.764;2022-07-23T12:50:59;93298.69;;;22.27;80.62
57248;BME280;55809;46.618;10.764;2022-07-23T12:53:29;93294.44;;;22.26;77.13
57248;BME280;55809;46.618;10.764;2022-07-23T12:56:00;93294.69;;;22.37;76.85
57248;BME280;55809;46.618;10.764;2022-07-23T12:58:38;93304.75;;;22.40;76.85
57248;BME280;55809;46.618;10.764;2022-07-23T13:01:16;93291.06;;;22.31;75.88
57248;BME280;55809;46.618;10.764;2022-07-23T13:03:56;93301.50;;;22.51;78.85
57248;BME280;55809;46.618;10.764;2022-07-23T13:06:25;93300.63;;;22.45;77.80